createdAt,value
2023-04-18T00:01:01.905Z,62.88
2023-04-18T00:03:30.411Z,62.90
2023-04-18T00:05:59.479Z,62.79
2023-04-18T00:08:28.487Z,62.89
2023-04-18T00:10:56.459Z,62.87
2023-04-18T00:13:24.393Z,62.80
2023-04-18T00:15:54.419Z,62.81
2023-04-18T00:18:22.396Z,62.80
2023-04-18T00:20:50.368Z,62.80
2023-04-18T00:23:18.862Z,62.75
2023-04-18T00:25:46.822Z,62.85
2023-04-18T00:28:14.802Z,62.84
2023-04-18T00:30:42.814Z,62.80
2023-04-18T00:33:10.908Z,62.81
2023-04-18T00:35:38.850Z,62.81
2023-04-18T00:38:08.860Z,62.79
2023-04-18T00:40:37.949Z,62.83
2023-04-18T00:43:07.765Z,62.84
2023-04-18T00:45:37.199Z,62.78
2023-04-18T00:48:05.233Z,62.71
2023-04-18T00:50:33.344Z,62.82
2023-04-18T00:53:01.375Z,62.87
2023-04-18T00:55:29.933Z,62.87
2023-04-18T00:57:57.861Z,62.87
2023-04-18T01:00:26.022Z,62.82
2023-04-18T01:02:55.882Z,62.87
2023-04-18T01:05:24.121Z,62.93
2023-04-18T01:07:52.235Z,62.87
2023-04-18T01:10:20.299Z,62.94
2023-04-18T01:12:50.805Z,63.02
2023-04-18T01:15:18.723Z,62.96
2023-04-18T01:17:47.288Z,62.92
2023-04-18T01:20:16.986Z,63.02
2023-04-18T01:22:44.895Z,62.97
2023-04-18T01:25:12.905Z,62.99
2023-04-18T01:27:40.924Z,63.03
2023-04-18T01:30:09.412Z,63.08
2023-04-18T01:32:37.406Z,63.14
2023-04-18T01:35:05.662Z,63.20
2023-04-18T01:37:35.037Z,63.16
2023-04-18T01:40:03.862Z,63.26
2023-04-18T01:42:31.934Z,63.26
2023-04-18T01:44:59.818Z,63.32
2023-04-18T01:47:27.919Z,63.33
2023-04-18T01:49:55.999Z,63.34
2023-04-18T01:52:24.042Z,63.35
2023-04-18T01:54:52.113Z,63.32
2023-04-18T01:57:20.292Z,63.37
2023-04-18T01:59:50.024Z,63.39
2023-04-18T02:02:19.406Z,63.40
2023-04-18T02:04:47.455Z,63.39
2023-04-18T02:07:15.554Z,63.40
2023-04-18T02:09:43.417Z,63.44
2023-04-18T02:12:12.837Z,63.49
2023-04-18T02:14:40.722Z,63.38
2023-04-18T02:17:08.810Z,63.43
2023-04-18T02:19:37.669Z,63.32
2023-04-18T02:22:05.878Z,63.31
2023-04-18T02:24:33.849Z,63.27
2023-04-18T02:27:02.038Z,63.26
2023-04-18T02:29:30.714Z,63.35
2023-04-18T02:31:58.804Z,63.23
2023-04-18T02:34:26.774Z,63.23
2023-04-18T02:36:54.729Z,63.31
2023-04-18T02:39:22.719Z,63.24
2023-04-18T02:41:50.994Z,63.25
2023-04-18T02:44:18.863Z,63.24
2023-04-18T02:46:46.838Z,63.31
2023-04-18T02:49:14.826Z,63.25
2023-04-18T02:51:43.092Z,63.15
2023-04-18T02:54:11.094Z,63.20
2023-04-18T02:56:54.289Z,63.20
2023-04-18T02:59:45.171Z,63.32
2023-04-18T03:02:31.929Z,63.18
2023-04-18T03:05:04.464Z,63.13
2023-04-18T03:07:34.134Z,63.15
2023-04-18T03:10:02.230Z,63.06
2023-04-18T03:12:33.176Z,63.05
2023-04-18T03:15:01.885Z,63.04
2023-04-18T03:17:30.117Z,63.06
2023-04-18T03:19:58.664Z,63.02
2023-04-18T03:22:26.629Z,62.97
2023-04-18T03:24:57.365Z,62.94
2023-04-18T03:27:37.005Z,63.03
2023-04-18T03:30:05.801Z,62.89
2023-04-18T03:32:35.307Z,62.82
2023-04-18T03:35:03.897Z,62.81
2023-04-18T03:37:32.088Z,62.79
2023-04-18T03:40:01.402Z,62.77
2023-04-18T03:42:30.786Z,62.77
2023-04-18T03:44:58.953Z,62.74
2023-04-18T03:47:27.387Z,62.70
2023-04-18T03:49:57.564Z,62.77
2023-04-18T03:52:28.551Z,62.77
2023-04-18T03:54:57.981Z,62.72
2023-04-18T03:57:29.578Z,62.66
2023-04-18T03:59:57.659Z,62.66
2023-04-18T04:02:25.870Z,62.62
2023-04-18T04:04:54.550Z,62.59
2023-04-18T04:07:23.423Z,62.54
2023-04-18T04:09:51.409Z,62.54
2023-04-18T04:12:19.284Z,62.52
2023-04-18T04:14:47.422Z,62.51
2023-04-18T04:17:16.129Z,62.53
2023-04-18T04:19:44.236Z,62.49
2023-04-18T04:22:16.486Z,62.43
2023-04-18T04:24:44.668Z,62.44
2023-04-18T04:27:13.768Z,62.40
2023-04-18T04:29:43.896Z,62.39
2023-04-18T04:32:13.731Z,62.34
2023-04-18T04:34:42.400Z,62.35
2023-04-18T04:37:14.184Z,62.34
2023-04-18T04:39:56.573Z,62.35
2023-04-18T04:42:49.365Z,62.33
2023-04-18T04:45:23.529Z,62.25
2023-04-18T04:47:53.374Z,62.25
2023-04-18T04:50:21.908Z,62.21
2023-04-18T04:52:50.094Z,62.19
2023-04-18T04:55:19.047Z,62.13
2023-04-18T04:57:47.892Z,62.16
2023-04-18T05:00:55.030Z,62.17
2023-04-18T05:03:23.597Z,62.18
2023-04-18T05:05:53.375Z,62.19
2023-04-18T05:08:21.266Z,62.13
2023-04-18T05:10:50.224Z,62.13
2023-04-18T05:13:18.136Z,62.10
2023-04-18T05:15:46.073Z,62.02
2023-04-18T05:18:15.147Z,62.02
2023-04-18T05:20:43.066Z,62.02
2023-04-18T05:23:10.931Z,62.03
2023-04-18T05:25:38.774Z,62.03
2023-04-18T05:28:08.436Z,62.00
2023-04-18T05:30:36.370Z,61.97
2023-04-18T05:33:04.413Z,61.92
2023-04-18T05:35:32.319Z,61.80
2023-04-18T05:38:00.415Z,61.76
2023-04-18T05:40:28.670Z,61.76
2023-04-18T05:42:56.655Z,61.77
2023-04-18T05:45:24.730Z,61.77
2023-04-18T05:47:54.162Z,61.66
2023-04-18T05:50:23.342Z,61.77
2023-04-18T05:52:51.310Z,61.73
2023-04-18T05:55:19.600Z,61.69
2023-04-18T05:57:47.566Z,61.67
2023-04-18T06:00:17.289Z,61.47
2023-04-18T06:02:45.362Z,61.44
2023-04-18T06:05:13.424Z,61.46
2023-04-18T06:07:41.672Z,61.49
2023-04-18T06:10:13.395Z,61.41
2023-04-18T06:12:41.858Z,61.41
2023-04-18T06:15:10.457Z,61.38
2023-04-18T06:17:38.382Z,61.42
2023-04-18T06:20:06.732Z,61.42
2023-04-18T06:22:34.701Z,61.41
2023-04-18T06:25:02.650Z,61.45
2023-04-18T06:27:31.390Z,61.43
2023-04-18T06:30:00.189Z,61.42
2023-04-18T06:32:28.384Z,61.25
2023-04-18T06:34:56.696Z,61.07
2023-04-18T06:37:24.772Z,60.96
2023-04-18T06:39:52.756Z,60.80
2023-04-18T06:42:22.495Z,60.82
2023-04-18T06:44:50.789Z,60.66
2023-04-18T06:47:18.823Z,60.63
2023-04-18T06:49:46.828Z,60.57
2023-04-18T06:52:14.736Z,60.63
2023-04-18T06:54:42.672Z,60.61
2023-04-18T06:57:10.748Z,60.66
2023-04-18T06:59:38.791Z,60.63
2023-04-18T07:02:07.362Z,60.61
2023-04-18T07:04:35.598Z,60.67
2023-04-18T07:07:05.296Z,60.64
2023-04-18T07:09:33.316Z,60.66
2023-04-18T07:12:01.310Z,60.64
2023-04-18T07:14:29.961Z,60.59
2023-04-18T07:16:58.961Z,60.66
2023-04-18T07:19:26.924Z,60.64
2023-04-18T07:21:56.089Z,60.67
2023-04-18T07:24:23.990Z,60.58
2023-04-18T07:26:54.382Z,60.57
2023-04-18T07:29:23.059Z,60.71
2023-04-18T07:31:51.075Z,60.61
2023-04-18T07:34:18.934Z,60.59
2023-04-18T07:36:46.910Z,60.55
2023-04-18T07:39:14.838Z,60.53
2023-04-18T07:41:42.695Z,60.54
2023-04-18T07:44:10.924Z,60.48
2023-04-18T07:46:39.021Z,60.49
2023-04-18T07:49:06.925Z,60.40
2023-04-18T07:51:35.107Z,60.45
2023-04-18T07:54:03.623Z,60.37
2023-04-18T07:56:31.458Z,60.34
2023-04-18T07:58:59.337Z,60.35
2023-04-18T08:01:27.347Z,60.27
2023-04-18T08:03:57.974Z,60.33
2023-04-18T08:06:27.126Z,60.29
2023-04-18T08:08:55.152Z,60.29
2023-04-18T08:11:23.063Z,60.28
2023-04-18T08:13:51.058Z,60.20
2023-04-18T08:16:18.952Z,60.22
2023-04-18T08:18:46.827Z,60.17
2023-04-18T08:21:14.654Z,60.13
2023-04-18T08:23:42.395Z,60.06
2023-04-18T08:26:10.270Z,60.15
2023-04-18T08:28:38.238Z,60.09
2023-04-18T08:31:06.512Z,60.07
2023-04-18T08:33:34.372Z,60.07
2023-04-18T08:36:02.353Z,60.07
2023-04-18T08:38:30.752Z,60.03
2023-04-18T08:40:58.623Z,59.94
2023-04-18T08:43:27.106Z,59.91
2023-04-18T08:45:58.644Z,60.02
2023-04-18T08:48:28.493Z,59.91
2023-04-18T08:50:57.914Z,60.01
2023-04-18T08:53:26.752Z,59.89
2023-04-18T08:55:56.399Z,59.88
2023-04-18T08:58:27.203Z,59.84
2023-04-18T09:00:55.548Z,59.81
2023-04-18T09:03:37.649Z,59.74
2023-04-18T09:06:14.025Z,59.74
2023-04-18T09:08:43.614Z,59.58
2023-04-18T09:11:42.504Z,59.67
2023-04-18T09:14:23.946Z,59.64
2023-04-18T09:16:51.867Z,59.57
2023-04-18T09:19:19.900Z,59.55
2023-04-18T09:21:56.955Z,59.49
2023-04-18T09:24:27.151Z,59.47
2023-04-18T09:26:56.992Z,59.44
2023-04-18T09:29:42.261Z,59.36
2023-04-18T09:32:10.259Z,59.36
2023-04-18T09:34:42.550Z,59.27
2023-04-18T09:37:11.834Z,59.30
2023-04-18T09:39:41.372Z,59.21
2023-04-18T09:42:10.750Z,59.17
2023-04-18T09:44:39.466Z,59.21
2023-04-18T09:47:08.050Z,59.19
2023-04-18T09:49:35.923Z,59.06
2023-04-18T09:52:05.616Z,59.07
2023-04-18T09:54:36.361Z,59.01
2023-04-18T09:57:07.109Z,58.88
2023-04-18T09:59:49.721Z,58.83
2023-04-18T10:02:22.326Z,58.77
2023-04-18T10:04:51.806Z,58.32
2023-04-18T10:07:20.985Z,58.13
2023-04-18T10:09:49.703Z,58.08
2023-04-18T10:12:18.490Z,58.05
2023-04-18T10:14:46.712Z,58.02
2023-04-18T10:17:15.507Z,58.05
2023-04-18T10:19:46.078Z,58.00
2023-04-18T10:22:14.127Z,57.92
2023-04-18T10:24:48.691Z,57.97
2023-04-18T10:27:17.819Z,57.96
2023-04-18T10:29:50.252Z,57.86
2023-04-18T10:32:19.297Z,57.76
2023-04-18T10:34:47.957Z,57.68
2023-04-18T10:37:15.949Z,57.52
2023-04-18T10:39:57.218Z,57.46
2023-04-18T10:42:44.914Z,57.31
2023-04-18T10:45:19.690Z,57.12
2023-04-18T10:47:48.050Z,57.01
2023-04-18T10:50:16.400Z,57.13
2023-04-18T10:52:44.470Z,57.06
2023-04-18T10:55:12.384Z,57.05
2023-04-18T10:57:41.193Z,57.05
2023-04-18T11:00:13.057Z,57.00
2023-04-18T11:02:47.890Z,56.95
2023-04-18T11:05:19.685Z,57.00
2023-04-18T11:07:50.479Z,56.90
2023-04-18T11:10:20.489Z,56.49
2023-04-18T11:12:48.583Z,56.12
2023-04-18T11:15:20.238Z,56.23
2023-04-18T11:17:58.832Z,56.05
2023-04-18T11:20:27.275Z,56.04
2023-04-18T11:22:56.908Z,56.00
2023-04-18T11:25:29.580Z,56.02
2023-04-18T11:28:01.444Z,56.10
2023-04-18T11:30:39.591Z,55.97
2023-04-18T11:33:11.957Z,56.07
2023-04-18T11:35:44.176Z,56.02
2023-04-18T11:38:13.471Z,56.04
2023-04-18T11:40:48.381Z,56.01
2023-04-18T11:43:20.974Z,55.98
2023-04-18T11:45:52.724Z,55.90
2023-04-18T11:48:20.749Z,55.94
2023-04-18T11:50:48.999Z,55.88
2023-04-18T11:53:31.691Z,55.86
2023-04-18T11:56:00.137Z,55.78
2023-04-18T11:58:32.680Z,55.53
2023-04-18T12:01:14.907Z,54.99
2023-04-18T12:03:44.477Z,55.09
2023-04-18T12:06:12.811Z,54.92
2023-04-18T12:08:43.174Z,54.79
2023-04-18T12:11:19.715Z,54.75
2023-04-18T12:13:47.778Z,54.63
2023-04-18T12:16:15.815Z,54.65
2023-04-18T12:18:44.041Z,54.35
2023-04-18T12:21:12.328Z,53.98
2023-04-18T12:23:44.324Z,53.68
2023-04-18T12:26:13.972Z,53.76
2023-04-18T12:28:44.915Z,53.85
2023-04-18T12:31:12.964Z,53.85
2023-04-18T12:33:41.173Z,53.89
2023-04-18T12:36:10.444Z,53.92
2023-04-18T12:38:38.518Z,53.86
2023-04-18T12:41:06.499Z,53.87
2023-04-18T12:43:34.373Z,53.82
2023-04-18T12:46:02.339Z,53.75
2023-04-18T12:48:30.232Z,53.57
2023-04-18T12:50:58.239Z,53.70
2023-04-18T12:53:26.226Z,53.61
2023-04-18T12:55:54.143Z,53.65
2023-04-18T12:58:22.101Z,53.63
2023-04-18T13:00:50.053Z,53.62
2023-04-18T13:03:18.069Z,53.57
2023-04-18T13:05:46.118Z,53.43
2023-04-18T13:08:17.768Z,53.28
2023-04-18T13:10:47.755Z,53.07
2023-04-18T13:13:16.051Z,52.65
2023-04-18T13:15:44.234Z,52.30
2023-04-18T13:18:12.325Z,52.22
2023-04-18T13:20:40.146Z,52.12
2023-04-18T13:23:08.150Z,52.10
2023-04-18T13:25:36.319Z,51.86
2023-04-18T13:28:04.633Z,52.04
2023-04-18T13:30:32.588Z,52.12
2023-04-18T13:33:00.605Z,52.07
2023-04-18T13:35:28.524Z,52.15
2023-04-18T13:37:56.620Z,52.09
2023-04-18T13:40:25.345Z,52.19
2023-04-18T13:42:53.394Z,52.11
2023-04-18T13:45:21.550Z,51.91
2023-04-18T13:47:49.722Z,51.97
2023-04-18T13:50:18.007Z,51.76
2023-04-18T13:52:48.254Z,51.71
2023-04-18T13:55:16.334Z,51.72
2023-04-18T13:57:44.698Z,51.77
2023-04-18T14:00:14.566Z,51.81
2023-04-18T14:02:42.743Z,51.78
2023-04-18T14:05:11.132Z,51.99
2023-04-18T14:07:39.569Z,51.89
2023-04-18T14:10:07.993Z,51.97
2023-04-18T14:12:35.879Z,51.95
2023-04-18T14:15:03.995Z,52.06
2023-04-18T14:17:31.820Z,52.15
2023-04-18T14:19:59.840Z,52.06
2023-04-18T14:22:27.787Z,51.93
2023-04-18T14:24:56.218Z,52.00
2023-04-18T14:27:26.203Z,51.91
2023-04-18T14:29:54.178Z,51.83
2023-04-18T14:32:22.238Z,51.92
2023-04-18T14:34:50.590Z,51.97
2023-04-18T14:37:18.519Z,51.85
2023-04-18T14:39:46.572Z,51.86
2023-04-18T14:42:14.458Z,51.80
2023-04-18T14:44:42.441Z,51.81
2023-04-18T14:47:10.391Z,51.73
2023-04-18T14:49:38.469Z,51.62
2023-04-18T14:52:06.390Z,51.64
2023-04-18T14:54:34.333Z,51.53
2023-04-18T14:57:02.133Z,51.52
2023-04-18T14:59:30.352Z,51.41
2023-04-18T15:01:58.389Z,51.49
2023-04-18T15:04:26.715Z,51.44
2023-04-18T15:06:54.710Z,51.42
2023-04-18T15:09:22.807Z,51.43
2023-04-18T15:11:51.732Z,51.37
2023-04-18T15:14:19.657Z,51.24
2023-04-18T15:16:50.814Z,51.16
2023-04-18T15:19:18.727Z,50.98
2023-04-18T15:21:46.503Z,50.77
2023-04-18T15:24:15.090Z,50.69
2023-04-18T15:26:43.475Z,50.65
2023-04-18T15:29:11.449Z,50.60
2023-04-18T15:31:39.599Z,50.54
2023-04-18T15:34:08.229Z,50.65
2023-04-18T15:36:36.338Z,50.55
2023-04-18T15:39:05.866Z,50.15
2023-04-18T15:41:34.623Z,49.82
2023-04-18T15:44:03.183Z,49.72
2023-04-18T15:46:31.092Z,49.82
2023-04-18T15:48:59.075Z,49.37
2023-04-18T15:51:31.060Z,49.26
2023-04-18T15:53:59.156Z,49.03
2023-04-18T15:56:27.407Z,48.55
2023-04-18T15:58:56.524Z,48.20
2023-04-18T16:01:24.441Z,47.92
2023-04-18T16:03:52.558Z,47.89
2023-04-18T16:06:23.803Z,47.92
2023-04-18T16:08:51.778Z,47.65
2023-04-18T16:11:21.192Z,47.29
2023-04-18T16:13:49.373Z,47.23
2023-04-18T16:16:17.600Z,47.22
2023-04-18T16:18:46.055Z,47.49
2023-04-18T16:21:16.971Z,47.55
2023-04-18T16:23:45.002Z,47.56
2023-04-18T16:26:13.020Z,47.56
2023-04-18T16:28:42.261Z,47.66
2023-04-18T16:31:10.438Z,47.67
2023-04-18T16:33:38.575Z,47.65
2023-04-18T16:36:07.378Z,47.53
2023-04-18T16:38:35.700Z,47.60
2023-04-18T16:41:03.930Z,47.55
2023-04-18T16:43:36.434Z,47.64
2023-04-18T16:46:04.583Z,47.66
2023-04-18T16:48:32.584Z,47.56
2023-04-18T16:51:00.577Z,47.65
2023-04-18T16:53:28.510Z,47.43
2023-04-18T16:55:56.816Z,47.70
2023-04-18T16:58:24.785Z,47.44
2023-04-18T17:00:52.950Z,47.26
2023-04-18T17:03:21.254Z,47.01
2023-04-18T17:05:49.430Z,46.87
2023-04-18T17:08:17.689Z,47.11
2023-04-18T17:10:45.869Z,47.11
2023-04-18T17:13:13.944Z,46.90
2023-04-18T17:15:43.145Z,46.96
2023-04-18T17:18:11.171Z,46.78
2023-04-18T17:20:39.512Z,46.92
2023-04-18T17:23:07.685Z,46.89
2023-04-18T17:25:35.661Z,46.86
2023-04-18T17:28:03.739Z,46.81
2023-04-18T17:30:31.719Z,46.55
2023-04-18T17:32:59.724Z,46.28
2023-04-18T17:35:27.655Z,46.52
2023-04-18T17:37:55.612Z,46.62
2023-04-18T17:40:23.535Z,46.66
2023-04-18T17:42:51.433Z,46.71
2023-04-18T17:45:20.739Z,46.60
2023-04-18T17:47:50.136Z,46.33
2023-04-18T17:50:18.168Z,46.29
2023-04-18T17:52:46.521Z,46.59
2023-04-18T17:55:14.524Z,46.55
2023-04-18T17:57:42.440Z,46.53
2023-04-18T18:00:12.014Z,46.62
2023-04-18T18:02:43.026Z,46.74
2023-04-18T18:05:13.375Z,46.79
2023-04-18T18:07:45.983Z,46.79
2023-04-18T18:10:15.684Z,46.82
2023-04-18T18:12:43.608Z,46.92
2023-04-18T18:15:12.147Z,46.99
2023-04-18T18:17:40.133Z,47.01
2023-04-18T18:20:09.995Z,47.15
2023-04-18T18:22:37.969Z,47.20
2023-04-18T18:25:06.342Z,47.22
2023-04-18T18:27:34.191Z,47.31
2023-04-18T18:30:03.170Z,47.38
2023-04-18T18:32:31.256Z,47.56
2023-04-18T18:34:59.094Z,47.51
2023-04-18T18:37:27.273Z,47.56
2023-04-18T18:39:56.435Z,47.62
2023-04-18T18:42:24.379Z,47.64
2023-04-18T18:44:52.316Z,47.73
2023-04-18T18:47:20.232Z,47.78
2023-04-18T18:49:48.878Z,47.74
2023-04-18T18:52:19.120Z,47.79
2023-04-18T18:54:47.058Z,47.83
2023-04-18T18:57:15.166Z,47.87
2023-04-18T18:59:43.462Z,47.80
2023-04-18T19:02:11.767Z,47.86
2023-04-18T19:04:39.992Z,47.85
2023-04-18T19:07:08.215Z,47.76
2023-04-18T19:09:36.987Z,47.79
2023-04-18T19:12:05.588Z,47.85
2023-04-18T19:14:33.431Z,47.92
2023-04-18T19:17:02.441Z,47.97
2023-04-18T19:19:30.464Z,47.93
2023-04-18T19:21:58.555Z,47.96
2023-04-18T19:24:26.431Z,47.97
2023-04-18T19:26:54.408Z,48.06
2023-04-18T19:29:22.716Z,48.06
2023-04-18T19:31:51.632Z,48.05
2023-04-18T19:34:19.594Z,48.12
2023-04-18T19:36:47.465Z,48.15
2023-04-18T19:39:15.568Z,48.16
2023-04-18T19:41:43.896Z,48.16
2023-04-18T19:44:11.782Z,48.26
2023-04-18T19:46:39.743Z,48.30
2023-04-18T19:49:07.732Z,48.35
2023-04-18T19:51:35.672Z,48.32
2023-04-18T19:54:04.707Z,48.32
2023-04-18T19:56:32.537Z,48.44
2023-04-18T19:59:01.786Z,48.36
2023-04-18T20:01:29.708Z,48.47
2023-04-18T20:04:00.242Z,48.53
2023-04-18T20:06:28.688Z,48.54
2023-04-18T20:08:56.594Z,48.60
2023-04-18T20:11:24.625Z,48.66
2023-04-18T20:13:54.520Z,48.69
2023-04-18T20:16:23.666Z,48.73
2023-04-18T20:18:52.984Z,48.82
2023-04-18T20:21:22.741Z,48.81
2023-04-18T20:23:50.618Z,48.87
2023-04-18T20:26:18.562Z,48.92
2023-04-18T20:28:46.453Z,48.94
2023-04-18T20:31:14.464Z,48.98
2023-04-18T20:33:42.466Z,48.98
2023-04-18T20:36:10.429Z,49.00
2023-04-18T20:38:38.327Z,49.11
2023-04-18T20:41:06.277Z,49.07
2023-04-18T20:43:37.477Z,49.09
2023-04-18T20:46:07.111Z,49.16
2023-04-18T20:48:35.378Z,49.20
2023-04-18T20:51:03.277Z,49.27
2023-04-18T20:53:31.117Z,49.30
2023-04-18T20:56:00.962Z,49.31
2023-04-18T20:58:29.762Z,49.36
2023-04-18T21:00:57.677Z,49.38
2023-04-18T21:03:25.835Z,49.41
2023-04-18T21:05:53.919Z,49.47
2023-04-18T21:08:21.995Z,49.50
2023-04-18T21:10:49.912Z,49.51
2023-04-18T21:13:17.881Z,49.53
2023-04-18T21:15:46.290Z,49.55
2023-04-18T21:18:14.548Z,49.58
2023-04-18T21:20:42.527Z,49.64
2023-04-18T21:23:10.696Z,49.65
2023-04-18T21:25:38.977Z,49.70
2023-04-18T21:28:07.998Z,49.63
2023-04-18T21:30:35.952Z,49.70
2023-04-18T21:33:04.043Z,49.65
2023-04-18T21:35:31.947Z,49.74
2023-04-18T21:37:59.886Z,49.79
2023-04-18T21:40:30.781Z,49.83
2023-04-18T21:42:58.821Z,49.76
2023-04-18T21:45:26.807Z,49.85
2023-04-18T21:47:55.225Z,49.91
2023-04-18T21:50:23.224Z,49.91
2023-04-18T21:52:51.166Z,49.86
2023-04-18T21:55:19.049Z,49.95
2023-04-18T21:57:46.992Z,49.95
2023-04-18T22:00:15.942Z,49.95
2023-04-18T22:02:43.979Z,49.97
2023-04-18T22:05:12.947Z,49.95
2023-04-18T22:07:54.406Z,49.99
2023-04-18T22:10:25.570Z,50.04
2023-04-18T22:12:54.133Z,50.17
2023-04-18T22:15:22.121Z,50.20
2023-04-18T22:17:50.474Z,50.19
2023-04-18T22:20:18.707Z,50.25
2023-04-18T22:22:46.513Z,50.30
2023-04-18T22:25:14.413Z,50.34
2023-04-18T22:27:43.093Z,50.31
2023-04-18T22:30:11.594Z,50.44
2023-04-18T22:32:39.760Z,50.34
2023-04-18T22:35:08.126Z,50.40
2023-04-18T22:37:36.124Z,50.50
2023-04-18T22:40:07.464Z,50.53
2023-04-18T22:42:37.359Z,50.57
2023-04-18T22:45:07.541Z,50.61
2023-04-18T22:47:35.520Z,50.58
2023-04-18T22:50:03.518Z,50.61
2023-04-18T22:52:31.453Z,50.70
2023-04-18T22:54:59.248Z,50.61
2023-04-18T22:57:27.217Z,50.66
2023-04-18T22:59:55.293Z,50.76
2023-04-18T23:02:23.450Z,50.74
2023-04-18T23:04:53.405Z,50.73
2023-04-18T23:07:21.593Z,50.85
2023-04-18T23:09:49.438Z,50.87
2023-04-18T23:12:17.306Z,50.84
2023-04-18T23:14:45.370Z,50.87
2023-04-18T23:17:13.261Z,50.90
2023-04-18T23:19:41.351Z,50.92
2023-04-18T23:22:09.170Z,51.04
2023-04-18T23:24:37.006Z,51.02
2023-04-18T23:27:04.936Z,50.87
2023-04-18T23:29:36.312Z,50.98
2023-04-18T23:32:04.374Z,51.00
2023-04-18T23:34:32.316Z,51.05
2023-04-18T23:37:00.916Z,51.13
2023-04-18T23:39:28.876Z,51.14
2023-04-18T23:41:56.720Z,51.18
2023-04-18T23:44:24.666Z,51.13
2023-04-18T23:46:52.612Z,51.19
2023-04-18T23:49:20.541Z,51.22
2023-04-18T23:51:48.496Z,51.17
2023-04-18T23:54:16.577Z,51.22
2023-04-18T23:56:44.794Z,51.29
2023-04-18T23:59:12.653Z,51.35
